»·PEaware :: N172TT KMHV-KBFL

N172TT :: KMHV-KBFL

FLIGHT INFORMATION

Flight Status: Arrived
Operator: Privately registered:
United States
More flights under this callsign
Pilot: Thomas T. (19955)
Aircraft: CESSNA 172 SKYHAWK
(C172)
More flights by this aircraft type
Origin: KMHV Mojave
United States
Destination: KBFL Meadows
United States
More flights between these airports :: More routes between these airports
Route: +
File this flight plan on PilotEdge
Remarks:
Altitude:
(Current/Filed)
6,500ft
Speed:
(Current/Filed)
0kts
Departed: 17-Sep-18 11:01 AM
Arrived: 17-Sep-18 11:49 AM
Distance/Time
Traveled:
50nm/0:47
Distance/Time
To Go:
Arrived

Flight Plot

Page will automatically refresh every two minutes.

Flight plan parsing failed; only flown route is shown


Map Options




Map Legend


Flown Route
Filed Route
Departure Airport
Arrival Airport
Navaid (VOR, NDB)
Fix

Horizontal Profiles

Position Reports

Time Latitude Longitude Heading Altitude Ground
Speed
17-Sep-18 10:53 35.056590 -118.150072 359 2760ft 0kts
17-Sep-18 10:54 35.056590 -118.150072 359 2760ft 0kts
17-Sep-18 10:55 35.056590 -118.150072 359 2760ft 0kts
17-Sep-18 10:56 35.057262 -118.149970 23 2760ft 12kts
17-Sep-18 10:57 35.057597 -118.143027 81 2760ft 20kts
17-Sep-18 10:58 35.058225 -118.142613 2 2760ft 0kts
17-Sep-18 10:59 35.058225 -118.142613 2 2760ft 0kts
17-Sep-18 11:00 35.058225 -118.142613 2 2760ft 0kts
17-Sep-18 11:01 35.058225 -118.142613 2 2760ft 0kts
17-Sep-18 11:02 35.058225 -118.142613 1 2760ft 0kts
17-Sep-18 11:03 35.059187 -118.147226 270 2764ft 70kts
17-Sep-18 11:04 35.061564 -118.171667 304 3535ft 76kts
17-Sep-18 11:05 35.073540 -118.193900 297 4443ft 79kts
17-Sep-18 11:06 35.085577 -118.218469 295 5163ft 96kts
17-Sep-18 11:07 35.098111 -118.249025 296 5766ft 103kts
17-Sep-18 11:08 35.111174 -118.280374 296 6374ft 103kts
17-Sep-18 11:09 35.124636 -118.312686 297 6660ft 114kts
17-Sep-18 11:10 35.139320 -118.347488 297 6569ft 116kts
17-Sep-18 11:11 35.154029 -118.382078 300 6483ft 116kts
17-Sep-18 11:12 35.170907 -118.415396 302 6446ft 114kts
17-Sep-18 11:13 35.187612 -118.448085 302 6445ft 113kts
17-Sep-18 11:14 35.204141 -118.480489 302 6445ft 113kts
17-Sep-18 11:15 35.220732 -118.513052 301 6445ft 113kts
17-Sep-18 11:16 35.237285 -118.545661 301 6445ft 113kts
17-Sep-18 11:17 35.253859 -118.578283 302 6444ft 112kts
17-Sep-18 11:18 35.270535 -118.611125 301 6445ft 114kts
17-Sep-18 11:19 35.287287 -118.644136 301 6445ft 114kts
17-Sep-18 11:20 35.303329 -118.675779 301 6444ft 114kts
17-Sep-18 11:21 35.320104 -118.708899 301 6444ft 114kts
17-Sep-18 11:22 35.336857 -118.742006 301 6444ft 114kts
17-Sep-18 11:23 35.353697 -118.775317 301 6444ft 114kts
17-Sep-18 11:24 35.371097 -118.809706 301 6095ft 123kts
17-Sep-18 11:25 35.390650 -118.844078 313 5595ft 124kts
17-Sep-18 11:26 35.414503 -118.874449 313 5096ft 124kts
17-Sep-18 11:27 35.438023 -118.905009 306 4600ft 124kts
17-Sep-18 11:28 35.456965 -118.940005 303 4104ft 126kts
17-Sep-18 11:29 35.476238 -118.975961 303 3507ft 127kts
17-Sep-18 11:30 35.488897 -119.011188 258 3420ft 110kts
17-Sep-18 11:31 35.481824 -119.047086 256 3419ft 107kts
17-Sep-18 11:32 35.482072 -119.082710 299 3414ft 107kts
17-Sep-18 11:33 35.507216 -119.101514 332 3410ft 107kts
17-Sep-18 11:34 35.528565 -119.125884 301 3411ft 107kts
17-Sep-18 11:35 35.541266 -119.158830 295 3412ft 107kts
17-Sep-18 11:36 35.556712 -119.189810 308 3410ft 107kts
17-Sep-18 11:37 35.575722 -119.217824 309 3410ft 107kts
17-Sep-18 11:38 35.595435 -119.245267 315 3410ft 107kts
17-Sep-18 11:39 35.615960 -119.271798 313 3410ft 107kts
17-Sep-18 11:40 35.635712 -119.298989 293 3408ft 107kts
17-Sep-18 11:41 35.617609 -119.319615 159 3407ft 106kts
17-Sep-18 11:42 35.605895 -119.287521 115 3406ft 107kts
17-Sep-18 11:43 35.589577 -119.257170 125 3402ft 107kts
17-Sep-18 11:44 35.572509 -119.226766 127 3289ft 115kts
17-Sep-18 11:45 35.550483 -119.197645 135 2890ft 117kts
17-Sep-18 11:46 35.527471 -119.169622 135 2570ft 113kts
17-Sep-18 11:47 35.504818 -119.142153 135 2125ft 114kts
17-Sep-18 11:48 35.484778 -119.117859 135 1598ft 85kts
17-Sep-18 11:49 35.470175 -119.100114 134 1191ft 69kts
17-Sep-18 11:50 35.455948 -119.082963 134 820ft 77kts
17-Sep-18 11:51 35.442467 -119.066555 136 497ft 37kts
17-Sep-18 11:52 35.440942 -119.062536 134 497ft 14kts
17-Sep-18 11:53 35.436179 -119.056752 134 497ft 20kts
17-Sep-18 11:54 35.434918 -119.053255 61 497ft 9kts

Navigation Log

Ident Type
Flight plan parsing failed, navigation log unavailable